sensor_id;sensor_type;location;lat;lon;timestamp;P1;durP1;ratioP1;P2;durP2;ratioP2
1651;SDS011;823;49.028;8.454;2022-08-05T00:01:49;3.77;;;2.33;;
1651;SDS011;823;49.028;8.454;2022-08-05T00:06:49;4.17;;;2.40;;
1651;SDS011;823;49.028;8.454;2022-08-05T00:11:51;3.80;;;2.40;;
1651;SDS011;823;49.028;8.454;2022-08-05T00:16:51;8.38;;;2.88;;
1651;SDS011;823;49.028;8.454;2022-08-05T00:21:51;2.67;;;2.23;;
1651;SDS011;823;49.028;8.454;2022-08-05T00:26:52;3.53;;;2.80;;
1651;SDS011;823;49.028;8.454;2022-08-05T00:31:53;3.70;;;2.70;;
1651;SDS011;823;49.028;8.454;2022-08-05T00:36:54;3.50;;;2.70;;
1651;SDS011;823;49.028;8.454;2022-08-05T00:41:54;3.00;;;2.40;;
1651;SDS011;823;49.028;8.454;2022-08-05T00:46:55;8.00;;;2.70;;
1651;SDS011;823;49.028;8.454;2022-08-05T00:51:55;4.38;;;2.22;;
1651;SDS011;823;49.028;8.454;2022-08-05T00:56:55;11.43;;;2.80;;
1651;SDS011;823;49.028;8.454;2022-08-05T01:01:56;4.33;;;2.30;;
1651;SDS011;823;49.028;8.454;2022-08-05T01:06:56;3.33;;;2.10;;
1651;SDS011;823;49.028;8.454;2022-08-05T01:11:58;4.40;;;2.47;;
1651;SDS011;823;49.028;8.454;2022-08-05T01:17:03;3.20;;;2.77;;
1651;SDS011;823;49.028;8.454;2022-08-05T01:32:55;7.70;;;2.47;;
1651;SDS011;823;49.028;8.454;2022-08-05T01:37:59;4.83;;;2.80;;
1651;SDS011;823;49.028;8.454;2022-08-05T01:43:03;4.30;;;2.53;;
1651;SDS011;823;49.028;8.454;2022-08-05T01:48:05;9.63;;;4.10;;
1651;SDS011;823;49.028;8.454;2022-08-05T01:53:09;4.77;;;2.97;;
1651;SDS011;823;49.028;8.454;2022-08-05T01:58:11;5.40;;;2.67;;
1651;SDS011;823;49.028;8.454;2022-08-05T02:03:18;5.10;;;2.93;;
1651;SDS011;823;49.028;8.454;2022-08-05T02:08:31;4.30;;;3.17;;
1651;SDS011;823;49.028;8.454;2022-08-05T02:13:41;3.27;;;2.70;;
1651;SDS011;823;49.028;8.454;2022-08-05T02:18:53;7.07;;;3.10;;
1651;SDS011;823;49.028;8.454;2022-08-05T02:24:02;6.67;;;3.27;;
1651;SDS011;823;49.028;8.454;2022-08-05T02:29:07;5.33;;;2.43;;
1651;SDS011;823;49.028;8.454;2022-08-05T02:34:11;4.60;;;2.70;;
1651;SDS011;823;49.028;8.454;2022-08-05T02:39:14;5.70;;;3.67;;
1651;SDS011;823;49.028;8.454;2022-08-05T02:44:20;14.73;;;3.50;;
1651;SDS011;823;49.028;8.454;2022-08-05T02:49:24;7.33;;;3.17;;
1651;SDS011;823;49.028;8.454;2022-08-05T02:54:26;12.23;;;3.30;;
1651;SDS011;823;49.028;8.454;2022-08-05T02:59:27;8.00;;;2.83;;
1651;SDS011;823;49.028;8.454;2022-08-05T03:04:29;4.77;;;3.23;;
1651;SDS011;823;49.028;8.454;2022-08-05T03:09:30;5.20;;;3.10;;
1651;SDS011;823;49.028;8.454;2022-08-05T03:14:31;7.50;;;2.90;;
1651;SDS011;823;49.028;8.454;2022-08-05T03:19:31;5.50;;;3.43;;
1651;SDS011;823;49.028;8.454;2022-08-05T03:24:31;8.03;;;3.27;;
1651;SDS011;823;49.028;8.454;2022-08-05T03:29:32;3.90;;;2.77;;
1651;SDS011;823;49.028;8.454;2022-08-05T03:34:33;6.90;;;3.60;;
1651;SDS011;823;49.028;8.454;2022-08-05T03:39:33;7.13;;;2.50;;
1651;SDS011;823;49.028;8.454;2022-08-05T03:44:34;4.60;;;2.80;;
1651;SDS011;823;49.028;8.454;2022-08-05T03:49:34;5.70;;;3.00;;
1651;SDS011;823;49.028;8.454;2022-08-05T03:54:38;7.13;;;2.80;;
1651;SDS011;823;49.028;8.454;2022-08-05T03:59:56;5.50;;;3.90;;
1651;SDS011;823;49.028;8.454;2022-08-05T04:05:00;6.17;;;3.20;;
1651;SDS011;823;49.028;8.454;2022-08-05T04:10:02;6.93;;;3.70;;
1651;SDS011;823;49.028;8.454;2022-08-05T04:15:03;8.57;;;3.80;;
1651;SDS011;823;49.028;8.454;2022-08-05T04:20:04;8.37;;;4.20;;
1651;SDS011;823;49.028;8.454;2022-08-05T04:25:05;12.90;;;4.63;;
1651;SDS011;823;49.028;8.454;2022-08-05T04:30:07;11.83;;;4.33;;
1651;SDS011;823;49.028;8.454;2022-08-05T04:35:08;9.80;;;5.03;;
1651;SDS011;823;49.028;8.454;2022-08-05T04:40:09;4.50;;;3.57;;
1651;SDS011;823;49.028;8.454;2022-08-05T04:45:10;10.13;;;4.10;;
1651;SDS011;823;49.028;8.454;2022-08-05T04:50:10;6.23;;;3.47;;
1651;SDS011;823;49.028;8.454;2022-08-05T04:55:11;8.77;;;3.10;;
1651;SDS011;823;49.028;8.454;2022-08-05T05:00:11;7.43;;;2.87;;
1651;SDS011;823;49.028;8.454;2022-08-05T05:05:12;7.23;;;2.90;;
1651;SDS011;823;49.028;8.454;2022-08-05T05:10:12;6.10;;;3.40;;
1651;SDS011;823;49.028;8.454;2022-08-05T05:15:12;5.90;;;2.80;;
1651;SDS011;823;49.028;8.454;2022-08-05T05:20:13;4.43;;;2.60;;
1651;SDS011;823;49.028;8.454;2022-08-05T05:25:13;4.40;;;2.50;;
1651;SDS011;823;49.028;8.454;2022-08-05T05:30:14;8.30;;;2.77;;
1651;SDS011;823;49.028;8.454;2022-08-05T05:35:15;6.60;;;2.37;;
1651;SDS011;823;49.028;8.454;2022-08-05T05:40:19;6.23;;;3.13;;
1651;SDS011;823;49.028;8.454;2022-08-05T05:45:21;4.20;;;2.37;;
1651;SDS011;823;49.028;8.454;2022-08-05T05:50:21;6.27;;;2.10;;
1651;SDS011;823;49.028;8.454;2022-08-05T05:55:21;3.28;;;2.20;;
1651;SDS011;823;49.028;8.454;2022-08-05T06:00:22;14.30;;;3.10;;
1651;SDS011;823;49.028;8.454;2022-08-05T06:05:22;7.50;;;2.40;;
1651;SDS011;823;49.028;8.454;2022-08-05T06:10:23;3.93;;;2.40;;
1651;SDS011;823;49.028;8.454;2022-08-05T06:15:23;3.13;;;2.20;;
1651;SDS011;823;49.028;8.454;2022-08-05T06:20:23;5.10;;;2.50;;
1651;SDS011;823;49.028;8.454;2022-08-05T06:25:24;7.53;;;2.30;;
1651;SDS011;823;49.028;8.454;2022-08-05T06:30:24;6.63;;;2.40;;
1651;SDS011;823;49.028;8.454;2022-08-05T06:35:25;3.07;;;2.33;;
1651;SDS011;823;49.028;8.454;2022-08-05T06:40:26;3.05;;;2.10;;
1651;SDS011;823;49.028;8.454;2022-08-05T06:45:26;3.90;;;1.90;;
1651;SDS011;823;49.028;8.454;2022-08-05T06:50:26;3.43;;;2.13;;
1651;SDS011;823;49.028;8.454;2022-08-05T06:55:27;2.57;;;2.30;;
1651;SDS011;823;49.028;8.454;2022-08-05T07:00:27;4.90;;;2.30;;
1651;SDS011;823;49.028;8.454;2022-08-05T07:05:27;4.00;;;2.07;;
1651;SDS011;823;49.028;8.454;2022-08-05T07:10:28;2.33;;;1.70;;
1651;SDS011;823;49.028;8.454;2022-08-05T07:15:28;4.70;;;2.67;;
1651;SDS011;823;49.028;8.454;2022-08-05T07:20:47;2.37;;;1.70;;
1651;SDS011;823;49.028;8.454;2022-08-05T07:25:47;2.73;;;1.60;;
1651;SDS011;823;49.028;8.454;2022-08-05T07:30:47;7.50;;;1.97;;
1651;SDS011;823;49.028;8.454;2022-08-05T07:35:48;3.40;;;2.60;;
1651;SDS011;823;49.028;8.454;2022-08-05T07:40:48;3.20;;;2.07;;
1651;SDS011;823;49.028;8.454;2022-08-05T07:45:49;3.30;;;1.53;;
1651;SDS011;823;49.028;8.454;2022-08-05T07:50:49;2.23;;;1.63;;
1651;SDS011;823;49.028;8.454;2022-08-05T07:55:49;4.40;;;2.63;;
1651;SDS011;823;49.028;8.454;2022-08-05T08:00:49;4.83;;;2.33;;
1651;SDS011;823;49.028;8.454;2022-08-05T08:05:50;4.18;;;1.90;;
1651;SDS011;823;49.028;8.454;2022-08-05T08:10:51;3.57;;;2.23;;
1651;SDS011;823;49.028;8.454;2022-08-05T08:15:54;2.90;;;2.00;;
1651;SDS011;823;49.028;8.454;2022-08-05T08:20:55;2.23;;;2.03;;
1651;SDS011;823;49.028;8.454;2022-08-05T08:25:55;3.57;;;2.10;;
1651;SDS011;823;49.028;8.454;2022-08-05T08:30:55;4.77;;;2.00;;
1651;SDS011;823;49.028;8.454;2022-08-05T08:35:55;6.30;;;1.95;;
1651;SDS011;823;49.028;8.454;2022-08-05T08:40:56;2.45;;;2.22;;
1651;SDS011;823;49.028;8.454;2022-08-05T08:45:56;2.10;;;1.90;;
1651;SDS011;823;49.028;8.454;2022-08-05T08:50:58;2.80;;;2.03;;
1651;SDS011;823;49.028;8.454;2022-08-05T08:56:00;3.93;;;2.17;;
1651;SDS011;823;49.028;8.454;2022-08-05T09:01:02;2.20;;;1.90;;
1651;SDS011;823;49.028;8.454;2022-08-05T09:06:04;5.93;;;1.90;;
1651;SDS011;823;49.028;8.454;2022-08-05T09:11:05;3.53;;;2.23;;
1651;SDS011;823;49.028;8.454;2022-08-05T09:16:06;7.00;;;2.07;;
1651;SDS011;823;49.028;8.454;2022-08-05T09:21:08;2.17;;;1.77;;
1651;SDS011;823;49.028;8.454;2022-08-05T09:26:10;13.07;;;2.30;;
1651;SDS011;823;49.028;8.454;2022-08-05T09:31:12;1.57;;;1.30;;
1651;SDS011;823;49.028;8.454;2022-08-05T09:36:15;3.83;;;1.93;;
1651;SDS011;823;49.028;8.454;2022-08-05T09:41:16;2.67;;;1.67;;
1651;SDS011;823;49.028;8.454;2022-08-05T09:46:26;2.50;;;1.97;;
1651;SDS011;823;49.028;8.454;2022-08-05T09:51:32;2.97;;;1.87;;
1651;SDS011;823;49.028;8.454;2022-08-05T09:56:35;2.50;;;1.77;;
1651;SDS011;823;49.028;8.454;2022-08-05T10:01:39;6.53;;;1.63;;
1651;SDS011;823;49.028;8.454;2022-08-05T10:06:51;9.13;;;2.40;;
1651;SDS011;823;49.028;8.454;2022-08-05T10:12:05;2.97;;;2.67;;
1651;SDS011;823;49.028;8.454;2022-08-05T10:17:10;2.10;;;1.90;;
1651;SDS011;823;49.028;8.454;2022-08-05T10:22:13;2.37;;;2.17;;
1651;SDS011;823;49.028;8.454;2022-08-05T10:27:13;7.40;;;1.80;;
1651;SDS011;823;49.028;8.454;2022-08-05T10:32:15;2.00;;;1.70;;
1651;SDS011;823;49.028;8.454;2022-08-05T10:37:15;2.77;;;2.10;;
1651;SDS011;823;49.028;8.454;2022-08-05T10:42:17;2.33;;;1.90;;
1651;SDS011;823;49.028;8.454;2022-08-05T10:47:24;3.43;;;1.90;;
1651;SDS011;823;49.028;8.454;2022-08-05T10:52:44;3.17;;;1.87;;
1651;SDS011;823;49.028;8.454;2022-08-05T10:58:06;2.20;;;2.00;;
1651;SDS011;823;49.028;8.454;2022-08-05T11:03:09;2.00;;;1.77;;
1651;SDS011;823;49.028;8.454;2022-08-05T11:08:11;3.47;;;2.10;;
1651;SDS011;823;49.028;8.454;2022-08-05T11:13:23;2.72;;;1.95;;
1651;SDS011;823;49.028;8.454;2022-08-05T11:18:39;3.73;;;2.00;;
1651;SDS011;823;49.028;8.454;2022-08-05T11:23:50;4.70;;;2.10;;
1651;SDS011;823;49.028;8.454;2022-08-05T11:28:52;2.70;;;2.00;;
1651;SDS011;823;49.028;8.454;2022-08-05T11:33:54;4.67;;;1.90;;
1651;SDS011;823;49.028;8.454;2022-08-05T11:38:57;3.20;;;1.90;;
1651;SDS011;823;49.028;8.454;2022-08-05T11:44:04;2.03;;;1.80;;
1651;SDS011;823;49.028;8.454;2022-08-05T11:49:13;2.10;;;1.70;;
1651;SDS011;823;49.028;8.454;2022-08-05T11:54:22;3.70;;;2.10;;
1651;SDS011;823;49.028;8.454;2022-08-05T11:59:28;2.40;;;2.20;;
1651;SDS011;823;49.028;8.454;2022-08-05T12:04:50;2.63;;;2.30;;
1651;SDS011;823;49.028;8.454;2022-08-05T12:09:53;2.77;;;1.80;;
1651;SDS011;823;49.028;8.454;2022-08-05T12:14:56;2.90;;;2.10;;
1651;SDS011;823;49.028;8.454;2022-08-05T12:19:57;3.20;;;2.20;;
1651;SDS011;823;49.028;8.454;2022-08-05T12:24:57;5.03;;;2.20;;
1651;SDS011;823;49.028;8.454;2022-08-05T12:35:03;2.80;;;2.00;;
1651;SDS011;823;49.028;8.454;2022-08-05T12:40:06;2.60;;;1.93;;
1651;SDS011;823;49.028;8.454;2022-08-05T12:45:09;2.37;;;1.87;;
1651;SDS011;823;49.028;8.454;2022-08-05T12:50:13;4.00;;;2.03;;
1651;SDS011;823;49.028;8.454;2022-08-05T12:55:16;3.73;;;2.77;;
1651;SDS011;823;49.028;8.454;2022-08-05T13:00:21;2.20;;;2.00;;
1651;SDS011;823;49.028;8.454;2022-08-05T13:05:23;3.20;;;2.40;;
1651;SDS011;823;49.028;8.454;2022-08-05T13:10:24;4.87;;;2.70;;
1651;SDS011;823;49.028;8.454;2022-08-05T13:15:30;3.70;;;2.50;;
1651;SDS011;823;49.028;8.454;2022-08-05T13:20:34;4.67;;;1.90;;
1651;SDS011;823;49.028;8.454;2022-08-05T13:25:35;3.10;;;2.50;;
1651;SDS011;823;49.028;8.454;2022-08-05T13:30:35;3.37;;;2.40;;
1651;SDS011;823;49.028;8.454;2022-08-05T13:35:35;2.80;;;2.30;;
1651;SDS011;823;49.028;8.454;2022-08-05T13:40:36;8.13;;;2.53;;
1651;SDS011;823;49.028;8.454;2022-08-05T13:45:36;4.17;;;2.73;;
1651;SDS011;823;49.028;8.454;2022-08-05T13:50:36;7.30;;;2.77;;
1651;SDS011;823;49.028;8.454;2022-08-05T13:55:37;6.90;;;3.00;;
1651;SDS011;823;49.028;8.454;2022-08-05T14:00:37;3.47;;;2.77;;
1651;SDS011;823;49.028;8.454;2022-08-05T14:05:38;4.83;;;2.87;;
1651;SDS011;823;49.028;8.454;2022-08-05T14:10:38;5.53;;;2.33;;
1651;SDS011;823;49.028;8.454;2022-08-05T14:15:38;6.70;;;2.80;;
1651;SDS011;823;49.028;8.454;2022-08-05T14:20:39;5.57;;;3.72;;
1651;SDS011;823;49.028;8.454;2022-08-05T14:25:39;8.17;;;3.40;;
1651;SDS011;823;49.028;8.454;2022-08-05T14:30:40;4.20;;;3.00;;
1651;SDS011;823;49.028;8.454;2022-08-05T14:35:40;4.97;;;3.40;;
1651;SDS011;823;49.028;8.454;2022-08-05T14:40:40;5.80;;;2.72;;
1651;SDS011;823;49.028;8.454;2022-08-05T14:45:40;6.90;;;3.20;;
1651;SDS011;823;49.028;8.454;2022-08-05T14:50:41;5.70;;;3.37;;
1651;SDS011;823;49.028;8.454;2022-08-05T14:55:41;4.87;;;3.47;;
1651;SDS011;823;49.028;8.454;2022-08-05T15:00:41;3.30;;;3.00;;
1651;SDS011;823;49.028;8.454;2022-08-05T15:05:42;3.67;;;3.33;;
1651;SDS011;823;49.028;8.454;2022-08-05T15:10:42;7.20;;;2.90;;
1651;SDS011;823;49.028;8.454;2022-08-05T15:15:43;3.73;;;2.80;;
1651;SDS011;823;49.028;8.454;2022-08-05T15:20:43;3.70;;;3.30;;
1651;SDS011;823;49.028;8.454;2022-08-05T15:25:44;9.23;;;2.50;;
1651;SDS011;823;49.028;8.454;2022-08-05T15:30:45;3.70;;;2.53;;
1651;SDS011;823;49.028;8.454;2022-08-05T15:35:45;3.17;;;2.30;;
1651;SDS011;823;49.028;8.454;2022-08-05T15:40:46;4.80;;;2.83;;
1651;SDS011;823;49.028;8.454;2022-08-05T15:45:46;2.90;;;2.27;;
1651;SDS011;823;49.028;8.454;2022-08-05T15:50:47;5.67;;;2.47;;
1651;SDS011;823;49.028;8.454;2022-08-05T15:55:47;3.03;;;2.07;;
1651;SDS011;823;49.028;8.454;2022-08-05T16:00:48;3.43;;;2.20;;
1651;SDS011;823;49.028;8.454;2022-08-05T16:05:48;3.30;;;2.17;;
1651;SDS011;823;49.028;8.454;2022-08-05T16:10:48;2.37;;;1.97;;
1651;SDS011;823;49.028;8.454;2022-08-05T16:15:49;3.83;;;2.50;;
1651;SDS011;823;49.028;8.454;2022-08-05T16:20:50;2.83;;;2.30;;
1651;SDS011;823;49.028;8.454;2022-08-05T16:26:01;6.43;;;2.60;;
1651;SDS011;823;49.028;8.454;2022-08-05T16:31:03;4.00;;;3.20;;
1651;SDS011;823;49.028;8.454;2022-08-05T16:41:56;9.77;;;6.10;;
1651;SDS011;823;49.028;8.454;2022-08-05T16:46:57;11.20;;;5.80;;
1651;SDS011;823;49.028;8.454;2022-08-05T16:51:58;10.30;;;6.03;;
1651;SDS011;823;49.028;8.454;2022-08-05T17:12:55;8.05;;;4.90;;
1651;SDS011;823;49.028;8.454;2022-08-05T17:53:37;9.15;;;6.30;;
1651;SDS011;823;49.028;8.454;2022-08-05T17:58:37;9.10;;;6.17;;
1651;SDS011;823;49.028;8.454;2022-08-05T18:03:38;13.07;;;6.97;;
1651;SDS011;823;49.028;8.454;2022-08-05T18:08:39;9.67;;;6.73;;
1651;SDS011;823;49.028;8.454;2022-08-05T18:13:40;11.17;;;6.77;;
1651;SDS011;823;49.028;8.454;2022-08-05T18:18:41;10.50;;;6.93;;
1651;SDS011;823;49.028;8.454;2022-08-05T18:23:42;9.90;;;6.90;;
1651;SDS011;823;49.028;8.454;2022-08-05T18:28:42;10.07;;;7.00;;
1651;SDS011;823;49.028;8.454;2022-08-05T18:33:43;11.47;;;8.37;;
1651;SDS011;823;49.028;8.454;2022-08-05T18:38:43;12.53;;;7.40;;
1651;SDS011;823;49.028;8.454;2022-08-05T18:43:44;11.43;;;7.70;;
1651;SDS011;823;49.028;8.454;2022-08-05T18:48:44;9.10;;;6.63;;
1651;SDS011;823;49.028;8.454;2022-08-05T18:53:45;10.20;;;6.07;;
1651;SDS011;823;49.028;8.454;2022-08-05T18:58:45;9.50;;;6.20;;
1651;SDS011;823;49.028;8.454;2022-08-05T19:03:46;8.20;;;5.57;;
1651;SDS011;823;49.028;8.454;2022-08-05T19:08:46;9.00;;;6.20;;
1651;SDS011;823;49.028;8.454;2022-08-05T19:13:46;8.32;;;5.43;;
1651;SDS011;823;49.028;8.454;2022-08-05T19:18:47;7.50;;;5.00;;
1651;SDS011;823;49.028;8.454;2022-08-05T19:23:47;9.07;;;5.00;;
1651;SDS011;823;49.028;8.454;2022-08-05T19:28:47;6.83;;;4.50;;
1651;SDS011;823;49.028;8.454;2022-08-05T19:33:48;6.20;;;4.10;;
1651;SDS011;823;49.028;8.454;2022-08-05T19:38:48;4.40;;;3.87;;
1651;SDS011;823;49.028;8.454;2022-08-05T19:43:49;6.77;;;3.87;;
1651;SDS011;823;49.028;8.454;2022-08-05T19:48:49;4.13;;;3.10;;
1651;SDS011;823;49.028;8.454;2022-08-05T19:53:49;5.67;;;3.23;;
1651;SDS011;823;49.028;8.454;2022-08-05T19:58:50;5.50;;;3.37;;
1651;SDS011;823;49.028;8.454;2022-08-05T20:03:50;4.10;;;2.30;;
1651;SDS011;823;49.028;8.454;2022-08-05T20:08:50;3.80;;;3.07;;
1651;SDS011;823;49.028;8.454;2022-08-05T20:13:51;4.57;;;2.20;;
1651;SDS011;823;49.028;8.454;2022-08-05T20:18:51;5.60;;;2.33;;
1651;SDS011;823;49.028;8.454;2022-08-05T20:23:52;2.60;;;1.70;;
1651;SDS011;823;49.028;8.454;2022-08-05T20:28:53;2.37;;;1.60;;
1651;SDS011;823;49.028;8.454;2022-08-05T20:33:55;2.50;;;1.70;;
1651;SDS011;823;49.028;8.454;2022-08-05T20:38:55;2.07;;;1.77;;
1651;SDS011;823;49.028;8.454;2022-08-05T20:43:56;3.83;;;1.60;;
1651;SDS011;823;49.028;8.454;2022-08-05T20:48:56;2.40;;;1.40;;
1651;SDS011;823;49.028;8.454;2022-08-05T20:53:56;1.67;;;1.35;;
1651;SDS011;823;49.028;8.454;2022-08-05T20:58:56;3.92;;;1.42;;
1651;SDS011;823;49.028;8.454;2022-08-05T21:03:57;3.37;;;1.30;;
1651;SDS011;823;49.028;8.454;2022-08-05T21:08:57;3.63;;;1.20;;
1651;SDS011;823;49.028;8.454;2022-08-05T21:13:58;1.98;;;1.10;;
1651;SDS011;823;49.028;8.454;2022-08-05T21:18:58;2.93;;;1.33;;
1651;SDS011;823;49.028;8.454;2022-08-05T21:23:59;2.47;;;0.90;;
1651;SDS011;823;49.028;8.454;2022-08-05T21:28:59;3.73;;;1.10;;
1651;SDS011;823;49.028;8.454;2022-08-05T21:33:59;2.05;;;0.90;;
1651;SDS011;823;49.028;8.454;2022-08-05T21:39:00;5.88;;;1.20;;
1651;SDS011;823;49.028;8.454;2022-08-05T21:44:00;6.05;;;1.00;;
1651;SDS011;823;49.028;8.454;2022-08-05T21:49:02;2.07;;;1.10;;
1651;SDS011;823;49.028;8.454;2022-08-05T21:54:03;1.97;;;1.10;;
1651;SDS011;823;49.028;8.454;2022-08-05T21:59:03;1.73;;;0.80;;
1651;SDS011;823;49.028;8.454;2022-08-05T22:04:04;1.57;;;0.80;;
1651;SDS011;823;49.028;8.454;2022-08-05T22:09:04;2.17;;;1.17;;
1651;SDS011;823;49.028;8.454;2022-08-05T22:14:05;1.50;;;1.23;;
1651;SDS011;823;49.028;8.454;2022-08-05T22:19:05;2.37;;;1.37;;
1651;SDS011;823;49.028;8.454;2022-08-05T22:24:06;1.65;;;1.00;;
1651;SDS011;823;49.028;8.454;2022-08-05T22:29:25;3.30;;;1.60;;
1651;SDS011;823;49.028;8.454;2022-08-05T22:34:25;1.20;;;1.00;;
1651;SDS011;823;49.028;8.454;2022-08-05T22:39:26;1.40;;;0.90;;
1651;SDS011;823;49.028;8.454;2022-08-05T22:44:27;4.00;;;1.87;;
1651;SDS011;823;49.028;8.454;2022-08-05T22:49:27;2.43;;;1.17;;
1651;SDS011;823;49.028;8.454;2022-08-05T22:54:28;6.03;;;1.60;;
1651;SDS011;823;49.028;8.454;2022-08-05T22:59:28;2.20;;;1.50;;
1651;SDS011;823;49.028;8.454;2022-08-05T23:04:29;1.93;;;1.00;;
1651;SDS011;823;49.028;8.454;2022-08-05T23:09:29;1.60;;;1.25;;
1651;SDS011;823;49.028;8.454;2022-08-05T23:14:29;1.30;;;0.90;;
1651;SDS011;823;49.028;8.454;2022-08-05T23:19:30;1.33;;;1.00;;
1651;SDS011;823;49.028;8.454;2022-08-05T23:24:30;1.97;;;1.03;;
1651;SDS011;823;49.028;8.454;2022-08-05T23:29:31;4.80;;;1.63;;
1651;SDS011;823;49.028;8.454;2022-08-05T23:34:31;2.90;;;1.30;;
1651;SDS011;823;49.028;8.454;2022-08-05T23:39:31;2.40;;;1.10;;
1651;SDS011;823;49.028;8.454;2022-08-05T23:44:32;4.70;;;1.20;;
1651;SDS011;823;49.028;8.454;2022-08-05T23:49:32;6.18;;;1.65;;
1651;SDS011;823;49.028;8.454;2022-08-05T23:54:33;2.10;;;1.47;;
1651;SDS011;823;49.028;8.454;2022-08-05T23:59:34;3.03;;;1.43;;
